createdAt,value
2023-12-12T00:01:37.872Z,99884.15
2023-12-12T00:04:05.930Z,99889.98
2023-12-12T00:06:33.995Z,99893.18
2023-12-12T00:09:01.094Z,99897.58
2023-12-12T00:11:28.633Z,99907.17
2023-12-12T00:13:56.228Z,99904.63
2023-12-12T00:16:23.540Z,99904.25
2023-12-12T00:18:51.459Z,99909.29
2023-12-12T00:21:19.182Z,99910.02
2023-12-12T00:23:46.155Z,99904.26
2023-12-12T00:26:14.489Z,99904.06
2023-12-12T00:28:41.911Z,99902.80
2023-12-12T12:16:44.260Z,99788.91
2023-12-12T12:19:34.526Z,99786.60
2023-12-12T12:22:06.890Z,99783.11
2023-12-12T12:24:34.662Z,99780.91
2023-12-12T12:27:02.162Z,99783.52
2023-12-12T12:29:29.570Z,99781.15
2023-12-12T12:31:57.559Z,99782.79
2023-12-12T12:34:25.720Z,99782.29
2023-12-12T12:36:55.528Z,99785.06
2023-12-12T12:39:23.861Z,99786.65
2023-12-12T12:41:55.423Z,99785.23
2023-12-12T12:44:23.703Z,99790.28
2023-12-12T12:46:52.380Z,99789.39
2023-12-12T12:49:20.006Z,99789.93
2023-12-12T12:51:48.753Z,99789.25
2023-12-12T12:54:16.825Z,99786.48
2023-12-12T12:56:46.961Z,99794.20
2023-12-12T12:59:18.157Z,99794.73
2023-12-12T13:01:48.961Z,99798.02
2023-12-12T13:04:16.935Z,99797.98
2023-12-12T13:06:44.071Z,99797.33
2023-12-12T13:09:11.279Z,99799.04
2023-12-12T13:11:39.729Z,99805.50
2023-12-12T13:14:07.369Z,99805.10
2023-12-12T13:16:34.708Z,99808.75
2023-12-12T13:19:01.867Z,99810.95
2023-12-12T13:21:29.332Z,99815.23
2023-12-12T13:23:56.528Z,99811.74
2023-12-12T13:26:23.683Z,99813.58
2023-12-12T13:28:53.680Z,99815.88
2023-12-12T13:31:25.308Z,99810.16
2023-12-12T13:33:54.252Z,99812.58
2023-12-12T13:36:21.496Z,99814.98
2023-12-12T13:38:48.488Z,99816.27
2023-12-12T13:41:15.981Z,99815.43
2023-12-12T13:43:43.538Z,99816.02
2023-12-12T13:46:10.690Z,99819.24
2023-12-12T13:48:38.111Z,99816.15
2023-12-12T13:51:05.398Z,99816.59
2023-12-12T13:53:32.557Z,99823.33
2023-12-12T13:55:59.703Z,99819.49
2023-12-12T13:58:26.823Z,99816.11
2023-12-12T14:00:53.919Z,99821.39
2023-12-12T14:03:20.982Z,99820.91
2023-12-12T14:05:47.975Z,99821.47
2023-12-12T14:08:15.045Z,99817.67
2023-12-12T14:10:42.147Z,99821.45
2023-12-12T14:13:09.547Z,99819.08
2023-12-12T14:15:37.254Z,99811.09
2023-12-12T14:18:05.290Z,99809.56
2023-12-12T14:20:32.675Z,99814.35
2023-12-12T14:23:07.449Z,99813.10
2023-12-12T14:25:38.231Z,99809.90
2023-12-12T14:28:06.606Z,99812.94
2023-12-12T14:30:34.102Z,99800.23
2023-12-12T14:33:01.440Z,99808.77
2023-12-12T14:35:30.303Z,99806.66
2023-12-12T14:37:57.527Z,99810.24
2023-12-12T14:40:24.716Z,99814.63
2023-12-12T14:42:51.794Z,99812.77
2023-12-12T14:45:19.525Z,99815.84
2023-12-12T14:47:46.752Z,99813.42
2023-12-12T14:50:13.996Z,99821.81
2023-12-12T14:52:41.291Z,99819.86
2023-12-12T14:55:08.855Z,99820.63
2023-12-12T14:57:36.053Z,99820.27
2023-12-12T15:00:12.661Z,99813.55
2023-12-12T15:02:47.311Z,99820.55
2023-12-12T15:05:16.077Z,99816.20
2023-12-12T15:07:45.979Z,99817.45
2023-12-12T15:10:13.988Z,99828.79
2023-12-12T15:12:41.127Z,99825.89
2023-12-12T15:15:09.060Z,99832.61
2023-12-12T15:17:36.159Z,99830.96
2023-12-12T15:20:04.449Z,99834.60
2023-12-12T15:22:31.925Z,99835.98
2023-12-12T15:24:59.196Z,99836.45
2023-12-12T15:27:26.279Z,99835.60
2023-12-12T15:29:55.320Z,99832.99
2023-12-12T15:32:22.428Z,99837.02
2023-12-12T15:34:50.034Z,99839.77
2023-12-12T15:37:17.136Z,99831.50
2023-12-12T15:39:44.347Z,99831.90
2023-12-12T15:42:11.498Z,99835.52
2023-12-12T15:44:38.552Z,99835.97
2023-12-12T15:47:05.728Z,99827.20
2023-12-12T15:49:36.095Z,99820.09
2023-12-12T15:52:03.759Z,99823.98
2023-12-12T15:54:31.222Z,99810.15
2023-12-12T15:56:58.180Z,99811.76
2023-12-12T15:59:25.212Z,99806.41
2023-12-12T16:01:52.633Z,99810.31
2023-12-12T16:04:19.793Z,99809.55
2023-12-12T16:06:46.832Z,99803.18
2023-12-12T16:09:15.134Z,99803.95
2023-12-12T16:11:47.103Z,99811.07
2023-12-12T16:14:17.121Z,99826.02
2023-12-12T16:16:44.292Z,99826.00
2023-12-12T16:19:11.590Z,99826.05
2023-12-12T16:21:38.884Z,99822.77
2023-12-12T16:24:06.652Z,99819.19
2023-12-12T16:26:33.985Z,99819.52
2023-12-12T16:29:02.444Z,99816.43
2023-12-12T16:31:29.761Z,99812.63
2023-12-12T16:33:57.806Z,99814.16
2023-12-12T16:36:24.927Z,99815.27
2023-12-12T16:38:58.458Z,99806.90
2023-12-12T16:41:25.538Z,99803.17
2023-12-12T16:43:52.552Z,99811.36
2023-12-12T16:46:20.056Z,99817.88
2023-12-12T16:48:47.347Z,99817.04
2023-12-12T16:51:14.350Z,99807.85
2023-12-12T16:53:43.524Z,99807.39
2023-12-12T16:56:12.113Z,99811.75
2023-12-12T16:58:39.324Z,99809.93
2023-12-12T17:01:06.760Z,99821.00
2023-12-12T17:03:33.969Z,99818.73
2023-12-12T17:06:04.658Z,99820.96
2023-12-12T17:08:31.921Z,99823.52
2023-12-12T17:10:59.130Z,99823.50
2023-12-12T17:13:26.950Z,99825.61
2023-12-12T17:15:57.732Z,99824.16
2023-12-12T17:18:25.411Z,99821.36
2023-12-12T17:20:52.607Z,99821.08
2023-12-12T17:23:19.936Z,99816.23
2023-12-12T17:25:47.016Z,99822.02
2023-12-12T17:28:14.024Z,99826.11
2023-12-12T17:30:42.258Z,99824.54
2023-12-12T17:33:09.374Z,99822.69
2023-12-12T17:35:36.727Z,99824.72
2023-12-12T17:38:04.266Z,99817.99
2023-12-12T17:40:31.541Z,99815.05
2023-12-12T17:42:58.642Z,99817.33
2023-12-12T17:45:25.743Z,99813.34
2023-12-12T17:47:57.668Z,99816.91
2023-12-12T17:50:37.950Z,99818.91
2023-12-12T17:53:10.523Z,99818.98
2023-12-12T17:55:37.676Z,99818.70
2023-12-12T17:58:04.817Z,99825.62
2023-12-12T18:00:31.859Z,99815.89
2023-12-12T18:02:58.889Z,99816.27
2023-12-12T18:05:27.148Z,99826.73
2023-12-12T18:07:54.536Z,99823.63
2023-12-12T18:10:21.820Z,99826.44
2023-12-12T18:12:48.863Z,99826.64
2023-12-12T18:15:16.174Z,99826.52
2023-12-12T18:17:43.170Z,99829.03
2023-12-12T18:20:11.145Z,99835.72
2023-12-12T18:22:39.548Z,99838.31
2023-12-12T18:25:07.159Z,99834.63
2023-12-12T18:27:36.423Z,99833.27
2023-12-12T18:30:10.293Z,99836.84
2023-12-12T18:32:37.978Z,99829.65
2023-12-12T18:35:05.437Z,99834.55
2023-12-12T18:37:35.972Z,99834.86
2023-12-12T18:40:03.370Z,99834.08
2023-12-12T18:42:32.130Z,99835.00
2023-12-12T18:45:00.426Z,99827.28
2023-12-12T18:47:27.562Z,99837.56
2023-12-12T18:49:54.818Z,99837.41
2023-12-12T18:52:22.150Z,99830.93
2023-12-12T18:54:49.426Z,99833.00
2023-12-12T18:57:16.406Z,99837.66
2023-12-12T18:59:43.388Z,99839.67
2023-12-12T19:02:11.146Z,99842.58
2023-12-12T19:04:38.352Z,99841.78
2023-12-12T19:07:06.044Z,99852.58
2023-12-12T19:09:33.173Z,99854.66
2023-12-12T19:12:00.160Z,99860.73
2023-12-12T19:14:27.310Z,99856.47
2023-12-12T19:16:54.349Z,99864.44
2023-12-12T19:19:22.561Z,99867.40
2023-12-12T19:21:49.609Z,99875.30
2023-12-12T19:24:16.827Z,99881.61
2023-12-12T19:26:43.804Z,99875.91
2023-12-12T19:29:10.776Z,99879.55
2023-12-12T19:31:46.045Z,99876.23
2023-12-12T19:34:14.040Z,99881.56
2023-12-12T19:36:47.889Z,99881.73
2023-12-12T19:39:15.697Z,99874.31
2023-12-12T19:41:44.842Z,99873.41
2023-12-12T19:44:12.470Z,99872.51
2023-12-12T19:46:39.735Z,99873.92
2023-12-12T19:49:06.824Z,99872.36
2023-12-12T19:51:33.864Z,99873.92
2023-12-12T19:54:01.396Z,99875.14
2023-12-12T19:56:28.641Z,99872.34
2023-12-12T19:58:55.722Z,99874.77
2023-12-12T20:01:22.901Z,99867.69
2023-12-12T20:03:50.068Z,99861.91
2023-12-12T20:06:17.182Z,99868.73
2023-12-12T20:08:44.239Z,99867.55
2023-12-12T20:11:11.216Z,99868.45
2023-12-12T20:13:38.349Z,99870.79
2023-12-12T20:16:07.046Z,99871.63
2023-12-12T20:18:35.746Z,99873.35
2023-12-12T20:21:03.979Z,99872.09
2023-12-12T20:23:31.086Z,99871.38
2023-12-12T20:25:58.275Z,99870.63
2023-12-12T20:28:25.736Z,99871.90
2023-12-12T20:30:52.781Z,99883.88
2023-12-12T20:33:19.803Z,99881.42
2023-12-12T20:35:46.850Z,99885.33
2023-12-12T20:38:13.856Z,99889.48
2023-12-12T20:40:41.165Z,99890.35
2023-12-12T20:43:08.210Z,99893.27
2023-12-12T20:45:35.318Z,99891.91
2023-12-12T20:48:02.416Z,99887.88
2023-12-12T20:50:30.776Z,99884.70
2023-12-12T20:52:59.817Z,99888.92
2023-12-12T20:55:26.836Z,99893.81
2023-12-12T20:57:57.600Z,99892.57
2023-12-12T21:00:29.128Z,99895.28
2023-12-12T21:02:56.934Z,99898.73
2023-12-12T21:05:25.665Z,99899.78
2023-12-12T21:07:52.833Z,99905.14
2023-12-12T21:10:19.997Z,99904.02
2023-12-12T21:12:46.988Z,99898.55
2023-12-12T21:15:14.909Z,99894.69
2023-12-12T21:17:42.051Z,99894.08
2023-12-12T21:20:10.335Z,99891.59
2023-12-12T21:22:39.960Z,99893.10
2023-12-12T21:25:08.589Z,99891.98
2023-12-12T21:27:36.324Z,99893.92
2023-12-12T21:30:03.617Z,99894.80
2023-12-12T21:32:30.833Z,99892.73
2023-12-12T21:34:58.378Z,99895.55
2023-12-12T21:37:25.457Z,99900.63
2023-12-12T21:39:52.393Z,99905.75
2023-12-12T21:42:19.566Z,99902.42
2023-12-12T21:44:46.602Z,99904.02
2023-12-12T21:47:13.572Z,99910.46
2023-12-12T21:49:40.623Z,99910.20
2023-12-12T21:52:08.483Z,99907.09
2023-12-12T21:54:35.850Z,99910.85
2023-12-12T21:57:03.500Z,99914.98
2023-12-12T21:59:30.628Z,99921.92
2023-12-12T22:01:57.676Z,99925.11
2023-12-12T22:04:24.679Z,99928.13
2023-12-12T22:06:55.517Z,99924.27
2023-12-12T22:09:22.703Z,99927.87
2023-12-12T22:11:50.642Z,99929.98
2023-12-12T22:14:17.597Z,99925.27
2023-12-12T22:16:44.690Z,99926.63
2023-12-12T22:19:11.846Z,99926.45
2023-12-12T22:21:38.933Z,99927.36
2023-12-12T22:24:06.208Z,99928.80
2023-12-12T22:26:33.351Z,99930.53
2023-12-12T22:29:03.412Z,99933.20
2023-12-12T22:31:30.806Z,99934.52
2023-12-12T22:33:57.905Z,99937.33
2023-12-12T22:36:25.085Z,99937.54
2023-12-12T22:38:53.572Z,99938.28
2023-12-12T22:41:25.098Z,99931.27
2023-12-12T22:43:52.709Z,99933.48
2023-12-12T22:46:23.193Z,99924.40
2023-12-12T22:48:50.483Z,99930.90
2023-12-12T22:51:19.938Z,99924.63
2023-12-12T22:53:46.988Z,99936.58
2023-12-12T22:56:14.536Z,99932.98
2023-12-12T22:58:42.292Z,99942.54
2023-12-12T23:01:11.318Z,99932.61
2023-12-12T23:03:38.707Z,99935.52
2023-12-12T23:06:08.866Z,99935.30
2023-12-12T23:08:36.013Z,99935.98
2023-12-12T23:11:03.263Z,99937.55
2023-12-12T23:13:30.383Z,99938.58
2023-12-12T23:15:57.347Z,99937.90
2023-12-12T23:18:24.523Z,99938.94
2023-12-12T23:20:54.094Z,99938.13
2023-12-12T23:23:23.394Z,99939.49
2023-12-12T23:25:51.131Z,99943.35
2023-12-12T23:28:18.452Z,99948.48
2023-12-12T23:30:57.704Z,99939.55
2023-12-12T23:33:32.649Z,99941.92
2023-12-12T23:36:01.053Z,99943.48
2023-12-12T23:38:28.083Z,99944.87
2023-12-12T23:40:55.229Z,99951.79
2023-12-12T23:43:22.268Z,99955.20
2023-12-12T23:45:51.211Z,99963.79
2023-12-12T23:48:18.824Z,99961.61
2023-12-12T23:50:45.921Z,99962.65
2023-12-12T23:53:13.177Z,99966.92
2023-12-12T23:55:40.395Z,99966.77
2023-12-12T23:58:07.818Z,99967.04
